sensor_id;sensor_type;location;lat;lon;timestamp;P1;durP1;ratioP1;P2;durP2;ratioP2
14342;SDS011;7255;53.596;9.960;2022-09-09T00:01:17;117.75;;;42.15;;
14342;SDS011;7255;53.596;9.960;2022-09-09T00:03:54;128.77;;;45.22;;
14342;SDS011;7255;53.596;9.960;2022-09-09T00:06:28;113.88;;;42.38;;
14342;SDS011;7255;53.596;9.960;2022-09-09T00:09:00;105.72;;;43.00;;
14342;SDS011;7255;53.596;9.960;2022-09-09T00:11:32;110.55;;;43.22;;
14342;SDS011;7255;53.596;9.960;2022-09-09T00:14:08;113.00;;;41.47;;
14342;SDS011;7255;53.596;9.960;2022-09-09T00:16:43;94.20;;;39.10;;
14342;SDS011;7255;53.596;9.960;2022-09-09T00:19:18;99.95;;;39.55;;
14342;SDS011;7255;53.596;9.960;2022-09-09T00:21:52;102.82;;;39.47;;
14342;SDS011;7255;53.596;9.960;2022-09-09T00:24:30;103.20;;;39.92;;
14342;SDS011;7255;53.596;9.960;2022-09-09T00:27:06;108.63;;;38.83;;
14342;SDS011;7255;53.596;9.960;2022-09-09T00:29:35;91.70;;;38.00;;
14342;SDS011;7255;53.596;9.960;2022-09-09T00:32:11;115.47;;;41.55;;
14342;SDS011;7255;53.596;9.960;2022-09-09T00:34:41;90.38;;;36.97;;
14342;SDS011;7255;53.596;9.960;2022-09-09T00:37:15;111.05;;;40.08;;
14342;SDS011;7255;53.596;9.960;2022-09-09T00:39:44;85.78;;;37.90;;
14342;SDS011;7255;53.596;9.960;2022-09-09T00:42:13;93.37;;;38.63;;
14342;SDS011;7255;53.596;9.960;2022-09-09T00:44:48;90.85;;;38.72;;
14342;SDS011;7255;53.596;9.960;2022-09-09T00:47:27;111.90;;;40.50;;
14342;SDS011;7255;53.596;9.960;2022-09-09T00:50:08;97.90;;;38.22;;
14342;SDS011;7255;53.596;9.960;2022-09-09T00:52:57;95.53;;;39.92;;
14342;SDS011;7255;53.596;9.960;2022-09-09T00:55:33;97.22;;;39.42;;
14342;SDS011;7255;53.596;9.960;2022-09-09T00:58:08;99.07;;;40.40;;
14342;SDS011;7255;53.596;9.960;2022-09-09T01:00:37;99.05;;;39.70;;
14342;SDS011;7255;53.596;9.960;2022-09-09T01:06:00;120.85;;;42.17;;
14342;SDS011;7255;53.596;9.960;2022-09-09T01:08:42;126.35;;;45.22;;
14342;SDS011;7255;53.596;9.960;2022-09-09T01:11:20;124.00;;;44.97;;
14342;SDS011;7255;53.596;9.960;2022-09-09T01:13:49;125.25;;;44.22;;
14342;SDS011;7255;53.596;9.960;2022-09-09T01:16:23;110.53;;;42.80;;
14342;SDS011;7255;53.596;9.960;2022-09-09T01:18:51;124.07;;;44.13;;
14342;SDS011;7255;53.596;9.960;2022-09-09T01:21:22;128.12;;;43.15;;
14342;SDS011;7255;53.596;9.960;2022-09-09T01:24:13;114.05;;;40.97;;
14342;SDS011;7255;53.596;9.960;2022-09-09T01:26:49;115.53;;;40.40;;
14342;SDS011;7255;53.596;9.960;2022-09-09T01:29:19;105.32;;;38.38;;
14342;SDS011;7255;53.596;9.960;2022-09-09T01:31:52;116.07;;;40.92;;
14342;SDS011;7255;53.596;9.960;2022-09-09T01:34:21;120.80;;;40.63;;
14342;SDS011;7255;53.596;9.960;2022-09-09T01:36:49;105.82;;;38.38;;
14342;SDS011;7255;53.596;9.960;2022-09-09T01:39:22;104.28;;;38.45;;
14342;SDS011;7255;53.596;9.960;2022-09-09T01:41:49;103.18;;;38.90;;
14342;SDS011;7255;53.596;9.960;2022-09-09T01:44:16;98.03;;;36.08;;
14342;SDS011;7255;53.596;9.960;2022-09-09T01:46:45;81.00;;;35.10;;
14342;SDS011;7255;53.596;9.960;2022-09-09T01:49:11;114.55;;;38.50;;
14342;SDS011;7255;53.596;9.960;2022-09-09T01:51:38;103.47;;;38.35;;
14342;SDS011;7255;53.596;9.960;2022-09-09T01:54:07;106.68;;;37.65;;
14342;SDS011;7255;53.596;9.960;2022-09-09T01:56:35;92.75;;;35.45;;
14342;SDS011;7255;53.596;9.960;2022-09-09T01:59:14;97.68;;;36.08;;
14342;SDS011;7255;53.596;9.960;2022-09-09T02:01:53;96.05;;;35.58;;
14342;SDS011;7255;53.596;9.960;2022-09-09T02:04:35;95.90;;;34.15;;
14342;SDS011;7255;53.596;9.960;2022-09-09T02:07:06;94.45;;;33.92;;
14342;SDS011;7255;53.596;9.960;2022-09-09T02:09:40;91.47;;;34.25;;
14342;SDS011;7255;53.596;9.960;2022-09-09T02:12:13;77.93;;;32.15;;
14342;SDS011;7255;53.596;9.960;2022-09-09T02:14:46;93.28;;;34.28;;
14342;SDS011;7255;53.596;9.960;2022-09-09T02:17:19;92.37;;;34.58;;
14342;SDS011;7255;53.596;9.960;2022-09-09T02:19:52;76.75;;;32.00;;
14342;SDS011;7255;53.596;9.960;2022-09-09T02:22:24;94.65;;;34.42;;
14342;SDS011;7255;53.596;9.960;2022-09-09T02:24:53;90.00;;;33.40;;
14342;SDS011;7255;53.596;9.960;2022-09-09T02:27:24;93.97;;;33.00;;
14342;SDS011;7255;53.596;9.960;2022-09-09T02:29:52;86.40;;;32.55;;
14342;SDS011;7255;53.596;9.960;2022-09-09T02:32:22;90.95;;;33.08;;
14342;SDS011;7255;53.596;9.960;2022-09-09T02:34:50;84.82;;;32.00;;
14342;SDS011;7255;53.596;9.960;2022-09-09T02:37:21;80.93;;;30.50;;
14342;SDS011;7255;53.596;9.960;2022-09-09T02:39:54;84.65;;;31.23;;
14342;SDS011;7255;53.596;9.960;2022-09-09T02:42:20;100.70;;;34.35;;
14342;SDS011;7255;53.596;9.960;2022-09-09T02:44:47;78.72;;;30.23;;
14342;SDS011;7255;53.596;9.960;2022-09-09T02:47:18;78.50;;;28.98;;
14342;SDS011;7255;53.596;9.960;2022-09-09T02:49:56;85.53;;;32.05;;
14342;SDS011;7255;53.596;9.960;2022-09-09T02:52:32;95.82;;;33.17;;
14342;SDS011;7255;53.596;9.960;2022-09-09T02:55:10;97.05;;;31.17;;
14342;SDS011;7255;53.596;9.960;2022-09-09T02:57:47;95.00;;;32.25;;
14342;SDS011;7255;53.596;9.960;2022-09-09T03:00:15;86.68;;;31.42;;
14342;SDS011;7255;53.596;9.960;2022-09-09T03:02:43;77.97;;;29.27;;
14342;SDS011;7255;53.596;9.960;2022-09-09T03:05:10;80.35;;;32.08;;
14342;SDS011;7255;53.596;9.960;2022-09-09T03:07:38;83.60;;;31.12;;
14342;SDS011;7255;53.596;9.960;2022-09-09T03:10:05;97.07;;;33.03;;
14342;SDS011;7255;53.596;9.960;2022-09-09T03:12:33;81.32;;;32.25;;
14342;SDS011;7255;53.596;9.960;2022-09-09T03:14:59;89.05;;;31.65;;
14342;SDS011;7255;53.596;9.960;2022-09-09T03:17:25;86.57;;;30.90;;
14342;SDS011;7255;53.596;9.960;2022-09-09T03:19:54;70.05;;;29.98;;
14342;SDS011;7255;53.596;9.960;2022-09-09T03:22:23;81.97;;;30.17;;
14342;SDS011;7255;53.596;9.960;2022-09-09T03:24:50;78.10;;;29.87;;
14342;SDS011;7255;53.596;9.960;2022-09-09T03:27:16;80.38;;;29.75;;
14342;SDS011;7255;53.596;9.960;2022-09-09T03:29:44;78.62;;;29.90;;
14342;SDS011;7255;53.596;9.960;2022-09-09T03:32:10;65.22;;;29.55;;
14342;SDS011;7255;53.596;9.960;2022-09-09T03:34:37;63.60;;;27.45;;
14342;SDS011;7255;53.596;9.960;2022-09-09T03:37:06;62.03;;;28.55;;
14342;SDS011;7255;53.596;9.960;2022-09-09T03:39:33;77.82;;;30.37;;
14342;SDS011;7255;53.596;9.960;2022-09-09T03:41:59;73.70;;;31.60;;
14342;SDS011;7255;53.596;9.960;2022-09-09T03:44:28;81.05;;;32.72;;
14342;SDS011;7255;53.596;9.960;2022-09-09T03:46:55;71.62;;;30.98;;
14342;SDS011;7255;53.596;9.960;2022-09-09T03:49:22;70.40;;;29.42;;
14342;SDS011;7255;53.596;9.960;2022-09-09T03:51:49;78.45;;;30.90;;
14342;SDS011;7255;53.596;9.960;2022-09-09T03:54:16;73.78;;;29.65;;
14342;SDS011;7255;53.596;9.960;2022-09-09T03:56:42;73.35;;;30.37;;
14342;SDS011;7255;53.596;9.960;2022-09-09T03:59:09;75.47;;;30.08;;
14342;SDS011;7255;53.596;9.960;2022-09-09T04:01:35;69.47;;;27.17;;
14342;SDS011;7255;53.596;9.960;2022-09-09T04:04:02;61.55;;;27.92;;
14342;SDS011;7255;53.596;9.960;2022-09-09T04:06:28;60.97;;;26.50;;
14342;SDS011;7255;53.596;9.960;2022-09-09T04:08:54;58.90;;;25.70;;
14342;SDS011;7255;53.596;9.960;2022-09-09T04:11:22;56.00;;;26.30;;
14342;SDS011;7255;53.596;9.960;2022-09-09T04:13:49;54.22;;;24.63;;
14342;SDS011;7255;53.596;9.960;2022-09-09T04:16:16;58.38;;;26.12;;
14342;SDS011;7255;53.596;9.960;2022-09-09T04:18:42;59.17;;;27.52;;
14342;SDS011;7255;53.596;9.960;2022-09-09T04:21:09;62.42;;;27.02;;
14342;SDS011;7255;53.596;9.960;2022-09-09T04:23:37;56.25;;;26.73;;
14342;SDS011;7255;53.596;9.960;2022-09-09T04:26:03;67.95;;;28.25;;
14342;SDS011;7255;53.596;9.960;2022-09-09T04:28:32;58.97;;;27.35;;
14342;SDS011;7255;53.596;9.960;2022-09-09T04:31:03;59.30;;;27.48;;
14342;SDS011;7255;53.596;9.960;2022-09-09T04:33:31;63.78;;;26.95;;
14342;SDS011;7255;53.596;9.960;2022-09-09T04:35:57;63.60;;;27.70;;
14342;SDS011;7255;53.596;9.960;2022-09-09T04:38:23;72.78;;;29.65;;
14342;SDS011;7255;53.596;9.960;2022-09-09T04:40:51;66.55;;;26.48;;
14342;SDS011;7255;53.596;9.960;2022-09-09T04:43:19;57.97;;;26.33;;
14342;SDS011;7255;53.596;9.960;2022-09-09T04:45:48;62.42;;;27.27;;
14342;SDS011;7255;53.596;9.960;2022-09-09T04:48:16;64.10;;;27.35;;
14342;SDS011;7255;53.596;9.960;2022-09-09T04:50:42;64.05;;;28.83;;
14342;SDS011;7255;53.596;9.960;2022-09-09T04:53:08;52.33;;;26.73;;
14342;SDS011;7255;53.596;9.960;2022-09-09T04:55:35;64.40;;;27.95;;
14342;SDS011;7255;53.596;9.960;2022-09-09T04:58:02;60.58;;;26.27;;
14342;SDS011;7255;53.596;9.960;2022-09-09T05:00:30;58.65;;;26.30;;
14342;SDS011;7255;53.596;9.960;2022-09-09T05:02:57;61.37;;;27.75;;
14342;SDS011;7255;53.596;9.960;2022-09-09T05:05:24;50.35;;;25.75;;
14342;SDS011;7255;53.596;9.960;2022-09-09T05:07:50;57.30;;;25.50;;
14342;SDS011;7255;53.596;9.960;2022-09-09T05:10:16;49.45;;;24.65;;
14342;SDS011;7255;53.596;9.960;2022-09-09T05:12:51;53.87;;;25.73;;
14342;SDS011;7255;53.596;9.960;2022-09-09T05:15:18;53.45;;;25.52;;
14342;SDS011;7255;53.596;9.960;2022-09-09T05:17:45;43.75;;;24.37;;
14342;SDS011;7255;53.596;9.960;2022-09-09T05:20:13;50.85;;;24.63;;
14342;SDS011;7255;53.596;9.960;2022-09-09T05:22:39;51.80;;;24.52;;
14342;SDS011;7255;53.596;9.960;2022-09-09T05:25:06;51.20;;;24.95;;
14342;SDS011;7255;53.596;9.960;2022-09-09T05:27:33;55.03;;;25.08;;
14342;SDS011;7255;53.596;9.960;2022-09-09T05:30:00;53.03;;;24.33;;
14342;SDS011;7255;53.596;9.960;2022-09-09T05:32:26;48.15;;;23.95;;
14342;SDS011;7255;53.596;9.960;2022-09-09T05:34:52;55.05;;;23.83;;
14342;SDS011;7255;53.596;9.960;2022-09-09T05:37:20;45.53;;;23.60;;
14342;SDS011;7255;53.596;9.960;2022-09-09T05:39:46;42.22;;;22.08;;
14342;SDS011;7255;53.596;9.960;2022-09-09T05:42:12;40.90;;;21.50;;
14342;SDS011;7255;53.596;9.960;2022-09-09T05:44:39;48.15;;;23.33;;
14342;SDS011;7255;53.596;9.960;2022-09-09T05:47:09;44.55;;;21.90;;
14342;SDS011;7255;53.596;9.960;2022-09-09T05:49:36;48.35;;;21.65;;
14342;SDS011;7255;53.596;9.960;2022-09-09T05:52:03;41.42;;;21.90;;
14342;SDS011;7255;53.596;9.960;2022-09-09T05:54:31;38.80;;;21.87;;
14342;SDS011;7255;53.596;9.960;2022-09-09T05:56:57;42.08;;;21.75;;
14342;SDS011;7255;53.596;9.960;2022-09-09T05:59:24;46.65;;;22.00;;
14342;SDS011;7255;53.596;9.960;2022-09-09T06:01:50;43.67;;;23.23;;
14342;SDS011;7255;53.596;9.960;2022-09-09T06:04:17;38.33;;;21.37;;
14342;SDS011;7255;53.596;9.960;2022-09-09T06:06:43;40.95;;;21.98;;
14342;SDS011;7255;53.596;9.960;2022-09-09T06:09:09;37.78;;;21.50;;
14342;SDS011;7255;53.596;9.960;2022-09-09T06:11:38;35.10;;;20.12;;
14342;SDS011;7255;53.596;9.960;2022-09-09T06:14:05;33.67;;;20.45;;
14342;SDS011;7255;53.596;9.960;2022-09-09T06:16:32;42.28;;;20.83;;
14342;SDS011;7255;53.596;9.960;2022-09-09T06:19:00;34.47;;;20.50;;
14342;SDS011;7255;53.596;9.960;2022-09-09T06:21:28;35.90;;;20.05;;
14342;SDS011;7255;53.596;9.960;2022-09-09T06:23:55;27.92;;;18.45;;
14342;SDS011;7255;53.596;9.960;2022-09-09T06:26:22;32.72;;;18.87;;
14342;SDS011;7255;53.596;9.960;2022-09-09T06:28:52;34.78;;;19.05;;
14342;SDS011;7255;53.596;9.960;2022-09-09T06:31:22;35.92;;;19.27;;
14342;SDS011;7255;53.596;9.960;2022-09-09T06:33:50;33.05;;;19.52;;
14342;SDS011;7255;53.596;9.960;2022-09-09T06:36:18;29.33;;;18.75;;
14342;SDS011;7255;53.596;9.960;2022-09-09T06:38:45;35.60;;;18.87;;
14342;SDS011;7255;53.596;9.960;2022-09-09T06:41:13;30.08;;;18.37;;
14342;SDS011;7255;53.596;9.960;2022-09-09T06:43:40;35.72;;;18.25;;
14342;SDS011;7255;53.596;9.960;2022-09-09T06:46:08;25.58;;;17.17;;
14342;SDS011;7255;53.596;9.960;2022-09-09T06:48:36;29.12;;;18.67;;
14342;SDS011;7255;53.596;9.960;2022-09-09T06:51:06;29.77;;;17.52;;
14342;SDS011;7255;53.596;9.960;2022-09-09T06:53:34;30.27;;;17.98;;
14342;SDS011;7255;53.596;9.960;2022-09-09T06:56:01;32.28;;;19.55;;
14342;SDS011;7255;53.596;9.960;2022-09-09T06:58:28;24.33;;;17.45;;
14342;SDS011;7255;53.596;9.960;2022-09-09T07:01:01;26.77;;;17.67;;
14342;SDS011;7255;53.596;9.960;2022-09-09T07:03:29;22.50;;;17.05;;
14342;SDS011;7255;53.596;9.960;2022-09-09T07:05:56;27.40;;;17.00;;
14342;SDS011;7255;53.596;9.960;2022-09-09T07:08:23;31.15;;;18.80;;
14342;SDS011;7255;53.596;9.960;2022-09-09T07:10:50;29.83;;;18.00;;
14342;SDS011;7255;53.596;9.960;2022-09-09T07:13:18;24.83;;;16.08;;
14342;SDS011;7255;53.596;9.960;2022-09-09T07:15:49;23.83;;;17.05;;
14342;SDS011;7255;53.596;9.960;2022-09-09T07:18:16;22.65;;;16.80;;
14342;SDS011;7255;53.596;9.960;2022-09-09T07:20:43;23.92;;;16.85;;
14342;SDS011;7255;53.596;9.960;2022-09-09T07:23:19;22.17;;;16.00;;
14342;SDS011;7255;53.596;9.960;2022-09-09T07:25:45;19.70;;;14.13;;
14342;SDS011;7255;53.596;9.960;2022-09-09T07:28:12;22.10;;;15.20;;
14342;SDS011;7255;53.596;9.960;2022-09-09T07:30:38;19.45;;;14.35;;
14342;SDS011;7255;53.596;9.960;2022-09-09T07:33:05;20.48;;;13.25;;
14342;SDS011;7255;53.596;9.960;2022-09-09T07:35:31;19.27;;;13.07;;
14342;SDS011;7255;53.596;9.960;2022-09-09T07:38:00;17.45;;;12.13;;
14342;SDS011;7255;53.596;9.960;2022-09-09T07:40:26;16.23;;;12.82;;
14342;SDS011;7255;53.596;9.960;2022-09-09T07:42:53;21.27;;;12.40;;
14342;SDS011;7255;53.596;9.960;2022-09-09T07:45:19;18.37;;;11.10;;
14342;SDS011;7255;53.596;9.960;2022-09-09T07:47:45;14.95;;;9.77;;
14342;SDS011;7255;53.596;9.960;2022-09-09T07:50:13;14.05;;;9.13;;
14342;SDS011;7255;53.596;9.960;2022-09-09T07:52:40;13.25;;;8.80;;
14342;SDS011;7255;53.596;9.960;2022-09-09T07:55:08;14.90;;;9.32;;
14342;SDS011;7255;53.596;9.960;2022-09-09T07:57:34;8.88;;;7.68;;
14342;SDS011;7255;53.596;9.960;2022-09-09T08:00:01;11.80;;;9.10;;
14342;SDS011;7255;53.596;9.960;2022-09-09T08:02:29;9.20;;;7.43;;
14342;SDS011;7255;53.596;9.960;2022-09-09T08:04:55;11.18;;;6.68;;
14342;SDS011;7255;53.596;9.960;2022-09-09T08:07:22;11.35;;;7.25;;
14342;SDS011;7255;53.596;9.960;2022-09-09T08:09:49;8.93;;;7.15;;
14342;SDS011;7255;53.596;9.960;2022-09-09T08:12:17;8.70;;;7.25;;
14342;SDS011;7255;53.596;9.960;2022-09-09T08:14:43;7.62;;;6.75;;
14342;SDS011;7255;53.596;9.960;2022-09-09T08:17:09;8.07;;;6.82;;
14342;SDS011;7255;53.596;9.960;2022-09-09T08:19:36;8.18;;;6.03;;
14342;SDS011;7255;53.596;9.960;2022-09-09T08:22:02;7.07;;;6.22;;
14342;SDS011;7255;53.596;9.960;2022-09-09T08:24:29;10.77;;;6.00;;
14342;SDS011;7255;53.596;9.960;2022-09-09T08:26:55;8.27;;;5.93;;
14342;SDS011;7255;53.596;9.960;2022-09-09T08:29:23;8.35;;;5.40;;
14342;SDS011;7255;53.596;9.960;2022-09-09T08:31:50;8.82;;;5.35;;
14342;SDS011;7255;53.596;9.960;2022-09-09T08:34:19;5.80;;;5.18;;
14342;SDS011;7255;53.596;9.960;2022-09-09T08:36:46;6.57;;;4.65;;
14342;SDS011;7255;53.596;9.960;2022-09-09T08:39:14;6.78;;;4.18;;
14342;SDS011;7255;53.596;9.960;2022-09-09T08:41:52;6.68;;;4.12;;
14342;SDS011;7255;53.596;9.960;2022-09-09T08:44:36;6.87;;;3.85;;
14342;SDS011;7255;53.596;9.960;2022-09-09T08:47:15;7.30;;;4.03;;
14342;SDS011;7255;53.596;9.960;2022-09-09T08:49:51;4.05;;;3.10;;
14342;SDS011;7255;53.596;9.960;2022-09-09T08:52:29;5.82;;;3.40;;
14342;SDS011;7255;53.596;9.960;2022-09-09T08:54:58;4.05;;;3.53;;
14342;SDS011;7255;53.596;9.960;2022-09-09T08:57:30;3.55;;;2.78;;
14342;SDS011;7255;53.596;9.960;2022-09-09T08:59:59;4.22;;;2.62;;
14342;SDS011;7255;53.596;9.960;2022-09-09T09:02:26;4.45;;;2.95;;
14342;SDS011;7255;53.596;9.960;2022-09-09T09:05:06;3.55;;;2.53;;
14342;SDS011;7255;53.596;9.960;2022-09-09T09:07:50;3.75;;;2.30;;
14342;SDS011;7255;53.596;9.960;2022-09-09T09:10:34;4.05;;;2.15;;
14342;SDS011;7255;53.596;9.960;2022-09-09T09:13:13;2.28;;;1.83;;
14342;SDS011;7255;53.596;9.960;2022-09-09T09:15:43;5.55;;;2.45;;
14342;SDS011;7255;53.596;9.960;2022-09-09T09:18:12;4.22;;;1.98;;
14342;SDS011;7255;53.596;9.960;2022-09-09T09:20:42;3.97;;;2.25;;
14342;SDS011;7255;53.596;9.960;2022-09-09T09:23:19;2.28;;;1.70;;
14342;SDS011;7255;53.596;9.960;2022-09-09T09:25:48;4.62;;;1.95;;
14342;SDS011;7255;53.596;9.960;2022-09-09T09:28:18;3.05;;;1.98;;
14342;SDS011;7255;53.596;9.960;2022-09-09T09:30:52;4.82;;;2.60;;
14342;SDS011;7255;53.596;9.960;2022-09-09T09:33:24;2.72;;;1.95;;
14342;SDS011;7255;53.596;9.960;2022-09-09T09:35:53;4.07;;;2.58;;
14342;SDS011;7255;53.596;9.960;2022-09-09T09:38:21;4.72;;;2.20;;
14342;SDS011;7255;53.596;9.960;2022-09-09T09:40:49;4.03;;;1.95;;
14342;SDS011;7255;53.596;9.960;2022-09-09T09:43:21;3.33;;;1.62;;
14342;SDS011;7255;53.596;9.960;2022-09-09T09:45:52;4.15;;;2.03;;
14342;SDS011;7255;53.596;9.960;2022-09-09T09:48:18;3.65;;;2.12;;
14342;SDS011;7255;53.596;9.960;2022-09-09T09:50:48;2.40;;;1.65;;
14342;SDS011;7255;53.596;9.960;2022-09-09T09:53:20;3.50;;;1.73;;
14342;SDS011;7255;53.596;9.960;2022-09-09T09:55:50;3.85;;;1.70;;
14342;SDS011;7255;53.596;9.960;2022-09-09T09:58:20;2.83;;;1.75;;
14342;SDS011;7255;53.596;9.960;2022-09-09T10:00:47;2.53;;;1.62;;
14342;SDS011;7255;53.596;9.960;2022-09-09T10:03:20;3.85;;;1.70;;
14342;SDS011;7255;53.596;9.960;2022-09-09T10:05:49;5.95;;;1.73;;
14342;SDS011;7255;53.596;9.960;2022-09-09T10:08:16;3.65;;;2.55;;
14342;SDS011;7255;53.596;9.960;2022-09-09T10:10:50;2.62;;;2.03;;
14342;SDS011;7255;53.596;9.960;2022-09-09T10:13:25;2.28;;;1.40;;
14342;SDS011;7255;53.596;9.960;2022-09-09T10:16:05;4.70;;;1.95;;
14342;SDS011;7255;53.596;9.960;2022-09-09T10:18:50;2.87;;;1.60;;
14342;SDS011;7255;53.596;9.960;2022-09-09T10:21:31;2.95;;;2.20;;
14342;SDS011;7255;53.596;9.960;2022-09-09T10:27:11;3.75;;;1.58;;
14342;SDS011;7255;53.596;9.960;2022-09-09T10:29:48;3.10;;;1.75;;
14342;SDS011;7255;53.596;9.960;2022-09-09T10:35:14;2.67;;;1.52;;
14342;SDS011;7255;53.596;9.960;2022-09-09T10:37:57;2.35;;;1.37;;
14342;SDS011;7255;53.596;9.960;2022-09-09T10:40:38;2.22;;;1.40;;
14342;SDS011;7255;53.596;9.960;2022-09-09T10:43:10;2.78;;;1.50;;
14342;SDS011;7255;53.596;9.960;2022-09-09T10:45:49;2.65;;;1.40;;
14342;SDS011;7255;53.596;9.960;2022-09-09T10:48:38;2.87;;;1.73;;
14342;SDS011;7255;53.596;9.960;2022-09-09T10:51:19;3.28;;;1.90;;
14342;SDS011;7255;53.596;9.960;2022-09-09T10:53:53;5.43;;;1.90;;
14342;SDS011;7255;53.596;9.960;2022-09-09T10:56:32;5.05;;;2.03;;
14342;SDS011;7255;53.596;9.960;2022-09-09T10:59:02;2.35;;;1.40;;
14342;SDS011;7255;53.596;9.960;2022-09-09T11:01:34;3.95;;;1.75;;
14342;SDS011;7255;53.596;9.960;2022-09-09T11:04:10;3.97;;;1.62;;
14342;SDS011;7255;53.596;9.960;2022-09-09T11:06:44;3.62;;;1.67;;
14342;SDS011;7255;53.596;9.960;2022-09-09T11:09:18;2.10;;;1.15;;
14342;SDS011;7255;53.596;9.960;2022-09-09T11:11:49;2.42;;;1.45;;
14342;SDS011;7255;53.596;9.960;2022-09-09T11:14:19;3.30;;;1.27;;
14342;SDS011;7255;53.596;9.960;2022-09-09T11:16:49;2.15;;;1.05;;
14342;SDS011;7255;53.596;9.960;2022-09-09T11:19:19;1.75;;;1.17;;
14342;SDS011;7255;53.596;9.960;2022-09-09T11:21:52;1.92;;;1.50;;
14342;SDS011;7255;53.596;9.960;2022-09-09T11:24:20;2.05;;;1.30;;
14342;SDS011;7255;53.596;9.960;2022-09-09T11:26:51;2.33;;;1.15;;
14342;SDS011;7255;53.596;9.960;2022-09-09T11:29:30;2.70;;;1.40;;
14342;SDS011;7255;53.596;9.960;2022-09-09T11:32:17;3.12;;;1.37;;
14342;SDS011;7255;53.596;9.960;2022-09-09T11:34:56;2.08;;;1.20;;
14342;SDS011;7255;53.596;9.960;2022-09-09T11:38:01;2.97;;;1.50;;
14342;SDS011;7255;53.596;9.960;2022-09-09T11:40:40;4.95;;;1.60;;
14342;SDS011;7255;53.596;9.960;2022-09-09T11:43:09;1.73;;;1.30;;
14342;SDS011;7255;53.596;9.960;2022-09-09T11:45:37;4.05;;;1.25;;
14342;SDS011;7255;53.596;9.960;2022-09-09T11:48:22;5.57;;;1.40;;
14342;SDS011;7255;53.596;9.960;2022-09-09T11:50:57;4.10;;;1.50;;
14342;SDS011;7255;53.596;9.960;2022-09-09T11:53:26;5.90;;;1.77;;
14342;SDS011;7255;53.596;9.960;2022-09-09T11:56:00;2.40;;;1.27;;
14342;SDS011;7255;53.596;9.960;2022-09-09T11:58:28;2.37;;;1.00;;
14342;SDS011;7255;53.596;9.960;2022-09-09T12:01:12;2.00;;;1.10;;
14342;SDS011;7255;53.596;9.960;2022-09-09T12:03:40;3.75;;;1.30;;
14342;SDS011;7255;53.596;9.960;2022-09-09T12:06:11;3.30;;;1.65;;
14342;SDS011;7255;53.596;9.960;2022-09-09T12:08:43;2.40;;;1.80;;
14342;SDS011;7255;53.596;9.960;2022-09-09T12:11:11;2.55;;;1.42;;
14342;SDS011;7255;53.596;9.960;2022-09-09T12:13:52;3.90;;;1.98;;
14342;SDS011;7255;53.596;9.960;2022-09-09T12:16:27;4.35;;;1.80;;
14342;SDS011;7255;53.596;9.960;2022-09-09T12:19:04;1.95;;;1.40;;
14342;SDS011;7255;53.596;9.960;2022-09-09T12:21:34;2.55;;;1.85;;
14342;SDS011;7255;53.596;9.960;2022-09-09T12:24:07;2.97;;;1.70;;
14342;SDS011;7255;53.596;9.960;2022-09-09T12:26:36;2.72;;;1.52;;
14342;SDS011;7255;53.596;9.960;2022-09-09T12:29:11;4.22;;;2.05;;
14342;SDS011;7255;53.596;9.960;2022-09-09T12:31:48;2.45;;;1.45;;
14342;SDS011;7255;53.596;9.960;2022-09-09T12:34:24;1.77;;;1.50;;
14342;SDS011;7255;53.596;9.960;2022-09-09T12:37:00;3.67;;;1.48;;
14342;SDS011;7255;53.596;9.960;2022-09-09T12:39:33;3.37;;;1.80;;
14342;SDS011;7255;53.596;9.960;2022-09-09T12:42:01;3.45;;;1.52;;
14342;SDS011;7255;53.596;9.960;2022-09-09T12:44:29;3.17;;;2.00;;
14342;SDS011;7255;53.596;9.960;2022-09-09T12:46:58;3.03;;;1.77;;
14342;SDS011;7255;53.596;9.960;2022-09-09T12:49:28;2.10;;;1.50;;
14342;SDS011;7255;53.596;9.960;2022-09-09T12:51:59;2.15;;;1.52;;
14342;SDS011;7255;53.596;9.960;2022-09-09T12:54:28;3.85;;;1.65;;
14342;SDS011;7255;53.596;9.960;2022-09-09T12:56:55;2.30;;;1.70;;
14342;SDS011;7255;53.596;9.960;2022-09-09T12:59:23;2.50;;;1.65;;
14342;SDS011;7255;53.596;9.960;2022-09-09T13:01:55;3.58;;;1.80;;
14342;SDS011;7255;53.596;9.960;2022-09-09T13:04:22;3.00;;;1.80;;
14342;SDS011;7255;53.596;9.960;2022-09-09T13:06:48;3.85;;;1.85;;
14342;SDS011;7255;53.596;9.960;2022-09-09T13:09:17;3.30;;;1.83;;
14342;SDS011;7255;53.596;9.960;2022-09-09T13:11:44;2.58;;;1.83;;
14342;SDS011;7255;53.596;9.960;2022-09-09T13:14:16;5.28;;;2.00;;
14342;SDS011;7255;53.596;9.960;2022-09-09T13:16:54;3.53;;;2.00;;
14342;SDS011;7255;53.596;9.960;2022-09-09T13:19:21;2.50;;;1.90;;
14342;SDS011;7255;53.596;9.960;2022-09-09T13:21:50;5.97;;;2.40;;
14342;SDS011;7255;53.596;9.960;2022-09-09T13:24:25;6.05;;;3.17;;
14342;SDS011;7255;53.596;9.960;2022-09-09T13:26:55;5.55;;;2.90;;
14342;SDS011;7255;53.596;9.960;2022-09-09T13:29:23;10.20;;;4.15;;
14342;SDS011;7255;53.596;9.960;2022-09-09T13:31:50;8.43;;;3.72;;
14342;SDS011;7255;53.596;9.960;2022-09-09T13:34:25;6.45;;;3.10;;
14342;SDS011;7255;53.596;9.960;2022-09-09T13:36:54;7.85;;;3.45;;
14342;SDS011;7255;53.596;9.960;2022-09-09T13:39:27;5.35;;;3.05;;
14342;SDS011;7255;53.596;9.960;2022-09-09T13:41:54;10.20;;;3.87;;
14342;SDS011;7255;53.596;9.960;2022-09-09T13:44:23;5.93;;;2.92;;
14342;SDS011;7255;53.596;9.960;2022-09-09T13:46:59;5.30;;;2.90;;
14342;SDS011;7255;53.596;9.960;2022-09-09T13:49:28;9.90;;;3.60;;
14342;SDS011;7255;53.596;9.960;2022-09-09T13:52:03;6.18;;;3.00;;
14342;SDS011;7255;53.596;9.960;2022-09-09T13:54:31;7.15;;;3.10;;
14342;SDS011;7255;53.596;9.960;2022-09-09T13:56:57;6.32;;;3.85;;
14342;SDS011;7255;53.596;9.960;2022-09-09T13:59:25;4.32;;;3.92;;
14342;SDS011;7255;53.596;9.960;2022-09-09T14:01:52;5.93;;;3.92;;
14342;SDS011;7255;53.596;9.960;2022-09-09T14:04:18;8.02;;;4.60;;
14342;SDS011;7255;53.596;9.960;2022-09-09T14:06:46;7.62;;;5.03;;
14342;SDS011;7255;53.596;9.960;2022-09-09T14:09:13;7.37;;;5.45;;
14342;SDS011;7255;53.596;9.960;2022-09-09T14:11:41;6.68;;;5.10;;
14342;SDS011;7255;53.596;9.960;2022-09-09T14:14:08;12.10;;;6.05;;
14342;SDS011;7255;53.596;9.960;2022-09-09T14:16:36;9.75;;;6.28;;
14342;SDS011;7255;53.596;9.960;2022-09-09T14:19:03;9.23;;;6.57;;
14342;SDS011;7255;53.596;9.960;2022-09-09T14:21:29;7.97;;;5.80;;
14342;SDS011;7255;53.596;9.960;2022-09-09T14:23:56;7.10;;;5.82;;
14342;SDS011;7255;53.596;9.960;2022-09-09T14:26:23;6.20;;;5.60;;
14342;SDS011;7255;53.596;9.960;2022-09-09T14:28:51;7.60;;;5.80;;
14342;SDS011;7255;53.596;9.960;2022-09-09T14:31:17;6.43;;;5.72;;
14342;SDS011;7255;53.596;9.960;2022-09-09T14:33:45;7.65;;;5.87;;
14342;SDS011;7255;53.596;9.960;2022-09-09T14:36:11;6.18;;;5.57;;
14342;SDS011;7255;53.596;9.960;2022-09-09T14:38:38;10.35;;;6.07;;
14342;SDS011;7255;53.596;9.960;2022-09-09T14:41:05;9.02;;;6.15;;
14342;SDS011;7255;53.596;9.960;2022-09-09T14:43:31;9.27;;;6.10;;
14342;SDS011;7255;53.596;9.960;2022-09-09T14:46:03;6.70;;;6.00;;
14342;SDS011;7255;53.596;9.960;2022-09-09T14:48:31;7.37;;;6.62;;
14342;SDS011;7255;53.596;9.960;2022-09-09T14:51:05;9.27;;;6.00;;
14342;SDS011;7255;53.596;9.960;2022-09-09T14:53:32;7.80;;;5.85;;
14342;SDS011;7255;53.596;9.960;2022-09-09T14:56:03;8.88;;;5.68;;
14342;SDS011;7255;53.596;9.960;2022-09-09T14:58:31;6.05;;;5.10;;
14342;SDS011;7255;53.596;9.960;2022-09-09T15:01:01;8.82;;;5.30;;
14342;SDS011;7255;53.596;9.960;2022-09-09T15:03:29;8.25;;;4.93;;
14342;SDS011;7255;53.596;9.960;2022-09-09T15:05:55;8.15;;;5.12;;
14342;SDS011;7255;53.596;9.960;2022-09-09T15:08:24;4.78;;;4.28;;
14342;SDS011;7255;53.596;9.960;2022-09-09T15:10:58;8.77;;;4.30;;
14342;SDS011;7255;53.596;9.960;2022-09-09T15:13:25;5.22;;;4.12;;